createdAt,value
2017-09-16T00:01:31.615Z,80.10
2017-09-16T00:04:01.932Z,80.20
2017-09-16T00:06:32.390Z,80.30
2017-09-16T00:09:02.715Z,80.10
2017-09-16T00:11:33.400Z,80.10
2017-09-16T00:14:04.725Z,80.20
2017-09-16T00:16:35.074Z,80.10
2017-09-16T00:19:05.455Z,80.00
2017-09-16T00:21:37.441Z,80.00
2017-09-16T00:24:09.292Z,80.10
2017-09-16T00:26:39.569Z,80.10
2017-09-16T00:29:09.935Z,80.20
2017-09-16T00:31:40.634Z,79.90
2017-09-16T00:34:11.132Z,80.10
2017-09-16T00:36:41.629Z,79.80
2017-09-16T00:39:13.586Z,80.20
2017-09-16T00:41:44.078Z,80.20
2017-09-16T00:44:14.387Z,80.00
2017-09-16T00:46:45.434Z,80.20
2017-09-16T00:49:16.028Z,80.30
2017-09-16T00:51:46.773Z,80.20
2017-09-16T00:54:17.532Z,79.90
2017-09-16T00:56:48.140Z,80.10
2017-09-16T00:59:18.547Z,80.20
2017-09-16T01:01:48.876Z,80.00
2017-09-16T01:04:19.219Z,80.30
2017-09-16T01:06:49.679Z,80.30
2017-09-16T01:09:21.051Z,80.40
2017-09-16T01:11:51.598Z,80.30
2017-09-16T01:14:22.154Z,80.30
2017-09-16T01:16:52.566Z,80.40
2017-09-16T01:19:22.985Z,80.40
2017-09-16T01:21:53.634Z,80.40
2017-09-16T01:24:24.329Z,80.30
2017-09-16T01:26:55.101Z,80.60
2017-09-16T01:29:25.692Z,80.50
2017-09-16T01:31:56.049Z,80.80
2017-09-16T01:34:26.404Z,80.70
2017-09-16T01:36:56.760Z,80.70
2017-09-16T01:39:27.316Z,80.80
2017-09-16T01:41:57.813Z,80.80
2017-09-16T01:44:28.235Z,81.00
2017-09-16T01:46:59.474Z,80.80
2017-09-16T01:49:29.930Z,80.80
2017-09-16T01:52:00.274Z,80.70
2017-09-16T01:54:30.685Z,80.50
2017-09-16T01:57:01.419Z,81.00
2017-09-16T01:59:31.857Z,80.60
2017-09-16T02:02:03.069Z,80.80
2017-09-16T02:04:33.622Z,80.70
2017-09-16T02:07:05.443Z,80.90
2017-09-16T02:09:35.813Z,80.90
2017-09-16T02:12:06.117Z,80.70
2017-09-16T02:14:36.552Z,80.80
2017-09-16T02:17:07.147Z,80.70
2017-09-16T02:19:37.519Z,80.80
2017-09-16T02:22:08.695Z,80.50
2017-09-16T02:24:39.895Z,80.80
2017-09-16T02:27:10.325Z,80.70
2017-09-16T02:29:40.753Z,80.60
2017-09-16T02:32:11.149Z,81.10
2017-09-16T02:34:41.759Z,80.40
2017-09-16T02:37:12.007Z,80.50
2017-09-16T02:39:44.834Z,80.80
2017-09-16T02:42:15.176Z,80.30
2017-09-16T02:44:45.450Z,80.40
2017-09-16T02:47:16.799Z,80.40
2017-09-16T02:49:48.077Z,81.20
2017-09-16T02:52:18.581Z,80.60
2017-09-16T02:54:49.021Z,80.50
2017-09-16T02:57:20.375Z,80.50
2017-09-16T02:59:51.493Z,80.30
2017-09-16T03:02:21.920Z,80.20
2017-09-16T03:04:52.444Z,80.60
2017-09-16T03:07:22.881Z,80.40
2017-09-16T03:09:54.043Z,80.50
2017-09-16T03:12:24.597Z,80.40
2017-09-16T03:14:55.032Z,80.50
2017-09-16T03:17:26.341Z,80.50
2017-09-16T03:19:56.719Z,80.50
2017-09-16T03:22:27.076Z,80.30
2017-09-16T03:24:57.473Z,80.60
2017-09-16T03:27:27.753Z,80.30
2017-09-16T03:29:57.987Z,80.40
2017-09-16T03:32:28.612Z,80.20
2017-09-16T03:34:59.171Z,80.70
2017-09-16T03:37:29.617Z,80.20
2017-09-16T03:40:00.774Z,80.90
2017-09-16T03:42:31.938Z,80.40
2017-09-16T03:45:02.357Z,79.90
2017-09-16T03:47:32.764Z,79.80
2017-09-16T03:50:04.602Z,79.90
2017-09-16T03:52:35.500Z,79.90
2017-09-16T03:55:05.780Z,79.90
2017-09-16T03:57:36.137Z,79.70
2017-09-16T04:00:06.676Z,79.40
2017-09-16T04:02:49.612Z,80.00
2017-09-16T04:05:19.962Z,79.80
2017-09-16T04:07:50.388Z,79.50
2017-09-16T04:10:20.741Z,79.20
2017-09-16T04:12:51.055Z,79.60
2017-09-16T04:15:22.323Z,79.40
2017-09-16T04:17:52.796Z,79.40
2017-09-16T04:20:23.105Z,79.40
2017-09-16T04:23:07.995Z,79.30
2017-09-16T04:25:52.514Z,79.20
2017-09-16T04:28:23.820Z,78.70
2017-09-16T04:30:54.241Z,78.90
2017-09-16T04:33:24.850Z,79.00
2017-09-16T04:35:55.675Z,79.00
2017-09-16T04:38:26.172Z,78.90
2017-09-16T04:40:56.723Z,78.70
2017-09-16T04:43:27.160Z,78.80
2017-09-16T04:45:57.425Z,78.90
2017-09-16T04:48:28.709Z,78.80
2017-09-16T04:50:59.064Z,78.80
2017-09-16T04:53:30.444Z,78.40
2017-09-16T04:56:00.763Z,78.50
2017-09-16T04:58:32.923Z,78.20
2017-09-16T05:01:03.670Z,78.20
2017-09-16T05:03:34.533Z,78.40
2017-09-16T05:06:06.102Z,78.40
2017-09-16T05:08:37.180Z,79.10
2017-09-16T05:11:07.710Z,78.50
2017-09-16T05:13:38.305Z,78.40
2017-09-16T05:16:09.323Z,78.30
2017-09-16T05:18:40.468Z,78.30
2017-09-16T05:21:11.618Z,78.20
2017-09-16T05:23:42.141Z,77.90
2017-09-16T05:26:14.852Z,78.00
2017-09-16T05:28:46.425Z,78.20
2017-09-16T05:31:18.966Z,78.30
2017-09-16T05:33:53.622Z,78.40
2017-09-16T05:36:25.320Z,78.10
2017-09-16T05:38:56.758Z,78.40
2017-09-16T05:41:29.870Z,77.90
2017-09-16T05:44:02.684Z,78.20
2017-09-16T05:46:34.829Z,78.30
2017-09-16T05:49:07.377Z,78.60
2017-09-16T05:51:40.853Z,78.50
2017-09-16T05:54:13.604Z,78.50
2017-09-16T05:56:47.618Z,78.60
2017-09-16T05:59:23.540Z,78.50
2017-09-16T06:01:57.993Z,78.50
2017-09-16T06:04:31.108Z,78.50
2017-09-16T06:07:03.574Z,78.70
2017-09-16T06:09:36.098Z,79.10
2017-09-16T06:12:07.741Z,78.60
2017-09-16T06:14:39.113Z,79.00
2017-09-16T06:17:10.975Z,79.00
2017-09-16T06:19:42.950Z,79.20
2017-09-16T08:01:18.510Z,81.20
2017-09-16T08:03:49.863Z,81.20
2017-09-16T08:06:23.287Z,81.30
2017-09-16T08:08:57.326Z,81.20
2017-09-16T08:11:31.587Z,81.10
2017-09-16T08:14:03.904Z,81.20
2017-09-16T08:16:36.896Z,81.20
2017-09-16T08:19:09.991Z,81.40
2017-09-16T08:21:43.547Z,81.50
2017-09-16T08:24:20.315Z,81.50
2017-09-16T08:26:52.454Z,81.60
2017-09-16T08:29:23.829Z,81.40
2017-09-16T08:31:54.911Z,81.40
2017-09-16T08:34:26.914Z,81.30
2017-09-16T08:36:57.693Z,81.30
2017-09-16T08:39:28.658Z,81.30
2017-09-16T08:42:00.706Z,81.20
2017-09-16T08:44:32.724Z,81.10
2017-09-16T08:47:03.860Z,81.50
2017-09-16T08:49:34.832Z,81.30
2017-09-16T08:52:05.761Z,81.50
2017-09-16T08:54:36.733Z,81.30
2017-09-16T08:57:08.554Z,81.20
2017-09-16T08:59:39.385Z,81.40
2017-09-16T09:02:10.275Z,81.10
2017-09-16T09:04:41.853Z,81.50
2017-09-16T09:07:13.988Z,81.50
2017-09-16T09:09:44.783Z,81.50
2017-09-16T09:12:15.848Z,81.40
2017-09-16T09:14:47.496Z,81.70
2017-09-16T09:17:18.054Z,81.60
2017-09-16T09:19:48.528Z,81.50
2017-09-16T09:22:19.859Z,81.70
2017-09-16T09:24:52.081Z,81.60
2017-09-16T09:27:25.157Z,81.50
2017-09-16T09:29:56.743Z,81.50
2017-09-16T09:32:27.647Z,81.30
2017-09-16T09:34:59.273Z,81.50
2017-09-16T09:37:30.725Z,81.30
2017-09-16T09:40:03.085Z,81.40
2017-09-16T09:42:34.302Z,81.60
2017-09-16T09:45:05.161Z,81.50
2017-09-16T09:47:36.792Z,81.60
2017-09-16T09:50:07.421Z,81.60
2017-09-16T09:52:38.829Z,81.70
2017-09-16T09:55:10.194Z,81.60
2017-09-16T09:57:41.152Z,81.60
2017-09-16T10:00:12.801Z,81.60
2017-09-16T10:02:44.460Z,81.80
2017-09-16T10:05:15.946Z,81.80
2017-09-16T10:07:48.660Z,82.00
2017-09-16T10:10:20.120Z,82.10
2017-09-16T10:12:52.080Z,81.70
2017-09-16T10:15:23.655Z,81.30
2017-09-16T10:17:54.550Z,81.50
2017-09-16T10:20:25.786Z,81.30
2017-09-16T10:22:56.766Z,81.70
2017-09-16T10:25:27.832Z,81.40
2017-09-16T10:27:59.193Z,81.50
2017-09-16T10:30:30.627Z,81.40
2017-09-16T10:33:02.807Z,82.30
2017-09-16T10:35:35.294Z,81.50
2017-09-16T10:38:12.465Z,81.70
2017-09-16T10:40:45.577Z,81.60
2017-09-16T10:43:21.565Z,81.40
2017-09-16T10:46:00.426Z,81.20
2017-09-16T10:48:39.953Z,81.60
2017-09-16T10:51:19.530Z,81.20
2017-09-16T10:53:59.359Z,81.30
2017-09-16T10:56:39.078Z,81.30
2017-09-16T10:59:24.624Z,81.50
2017-09-16T11:02:09.672Z,81.50
2017-09-16T11:04:48.594Z,81.20
2017-09-16T11:07:27.315Z,81.20
2017-09-16T11:10:05.323Z,81.00
2017-09-16T11:12:51.374Z,81.10
2017-09-16T11:15:34.150Z,81.10
2017-09-16T11:18:22.131Z,81.10
2017-09-16T11:21:06.805Z,80.90
2017-09-16T11:23:49.653Z,80.90
2017-09-16T11:26:31.293Z,80.50
2017-09-16T11:29:09.268Z,80.60
2017-09-16T11:31:49.354Z,80.40
2017-09-16T11:34:36.486Z,80.40
2017-09-16T11:37:20.811Z,80.40
2017-09-16T11:40:06.875Z,80.30
2017-09-16T11:42:48.917Z,80.20
2017-09-16T11:45:36.818Z,80.30
2017-09-16T11:48:18.902Z,80.20
2017-09-16T11:51:09.689Z,80.00
2017-09-16T11:53:56.756Z,80.20
2017-09-16T11:56:38.810Z,80.20
2017-09-16T11:59:19.506Z,79.80
2017-09-16T12:02:01.116Z,80.20
2017-09-16T12:04:49.911Z,80.30
2017-09-16T12:07:36.464Z,80.20
2017-09-16T12:10:19.324Z,80.30
2017-09-16T12:12:56.178Z,79.90
2017-09-16T12:15:43.227Z,80.20
2017-09-16T12:18:27.864Z,80.00
2017-09-16T12:21:09.318Z,79.80
2017-09-16T12:23:48.607Z,79.90
2017-09-16T12:26:30.644Z,79.90
2017-09-16T12:29:10.319Z,79.80
2017-09-16T12:31:50.221Z,80.00
2017-09-16T12:34:35.782Z,80.10
2017-09-16T12:37:29.453Z,79.60
2017-09-16T12:40:28.153Z,80.10
2017-09-16T12:43:13.039Z,79.80
2017-09-16T12:45:57.657Z,80.00
2017-09-16T12:48:47.580Z,80.20
2017-09-16T12:51:29.205Z,80.50
2017-09-16T12:54:12.832Z,80.30
2017-09-16T12:56:56.775Z,80.00
2017-09-16T12:59:38.606Z,79.80
2017-09-16T13:02:29.726Z,80.30
2017-09-16T13:05:16.195Z,80.30
2017-09-16T13:08:03.577Z,80.30
2017-09-16T13:10:42.380Z,80.60
2017-09-16T13:13:23.071Z,80.30
2017-09-16T13:16:05.416Z,80.20
2017-09-16T13:18:53.282Z,80.30
2017-09-16T13:21:39.991Z,80.20
2017-09-16T13:24:20.713Z,80.20
2017-09-16T13:27:10.864Z,80.30
2017-09-16T13:29:57.876Z,80.40
2017-09-16T13:32:43.645Z,80.30
2017-09-16T13:35:29.707Z,80.40
2017-09-16T13:38:13.887Z,80.40
2017-09-16T13:40:56.829Z,80.40
2017-09-16T13:43:46.642Z,80.30
2017-09-16T13:46:29.606Z,80.40
2017-09-16T13:49:09.901Z,80.20
2017-09-16T13:51:52.263Z,80.40
2017-09-16T13:54:38.011Z,80.30
2017-09-16T13:57:23.052Z,80.30
2017-09-16T14:00:03.206Z,80.60
2017-09-16T14:02:45.762Z,80.10
2017-09-16T14:05:29.172Z,80.10
2017-09-16T14:08:15.501Z,80.10
2017-09-16T14:10:55.768Z,80.00
2017-09-16T14:13:38.488Z,80.10
2017-09-16T14:16:23.119Z,79.90
2017-09-16T14:19:01.968Z,79.80
2017-09-16T14:24:25.046Z,79.80
2017-09-16T14:27:05.522Z,79.70
2017-09-16T14:29:46.201Z,79.70
2017-09-16T14:32:29.632Z,79.60
2017-09-16T14:35:10.605Z,79.50
2017-09-16T14:37:51.909Z,79.60
2017-09-16T14:40:39.488Z,79.60
2017-09-16T14:43:29.212Z,79.50
2017-09-16T14:46:12.847Z,79.30
2017-09-16T14:48:55.479Z,79.70
2017-09-16T14:54:31.872Z,79.40
2017-09-16T14:57:11.829Z,79.40
2017-09-16T14:59:55.604Z,79.50
2017-09-16T15:02:40.413Z,79.80
2017-09-16T15:05:19.794Z,79.80
2017-09-16T15:08:01.990Z,79.40
2017-09-16T15:10:43.044Z,79.40
2017-09-16T15:13:23.909Z,80.10
2017-09-16T15:16:06.332Z,79.80
2017-09-16T15:18:46.778Z,79.60
2017-09-16T15:21:24.290Z,79.50
2017-09-16T15:24:12.890Z,79.80
2017-09-16T15:27:01.288Z,79.20
2017-09-16T15:29:48.451Z,79.60
2017-09-16T15:32:33.372Z,79.90
2017-09-16T15:35:13.441Z,79.70
2017-09-16T15:38:02.403Z,80.10
2017-09-16T15:40:43.234Z,79.60
2017-09-16T15:43:28.884Z,79.30
2017-09-16T15:46:10.567Z,79.80
2017-09-16T15:48:53.576Z,80.00
2017-09-16T15:51:33.647Z,80.00
2017-09-16T15:54:18.926Z,80.00
2017-09-16T15:57:00.631Z,80.20
2017-09-16T15:59:45.788Z,80.30
2017-09-16T16:02:26.120Z,80.40
2017-09-16T16:05:07.674Z,80.20
2017-09-16T16:07:59.742Z,80.10
2017-09-16T16:10:39.073Z,80.00
2017-09-16T16:13:23.555Z,80.00
2017-09-16T16:16:05.907Z,80.10
2017-09-16T16:18:47.756Z,80.10
2017-09-16T16:21:29.315Z,80.70
2017-09-16T16:24:12.508Z,80.10
2017-09-16T16:26:51.909Z,80.30
2017-09-16T16:29:33.713Z,80.10
2017-09-16T16:32:14.436Z,79.90
2017-09-16T16:34:55.464Z,79.90
2017-09-16T16:37:42.468Z,79.90
2017-09-16T16:40:22.631Z,79.90
2017-09-16T16:43:03.205Z,80.30
2017-09-16T16:45:48.104Z,79.20
2017-09-16T16:48:38.133Z,78.50
2017-09-16T16:54:10.476Z,77.60
2017-09-16T16:56:50.010Z,77.50
2017-09-16T17:02:17.502Z,77.40
2017-09-16T17:04:57.515Z,77.30
2017-09-16T17:07:45.377Z,77.30
2017-09-16T17:10:24.449Z,77.40
2017-09-16T17:13:10.080Z,77.30
2017-09-16T17:15:49.534Z,77.50
2017-09-16T17:24:41.491Z,77.30
2017-09-16T17:27:21.829Z,77.20
2017-09-16T17:30:00.456Z,77.70
2017-09-16T17:32:36.728Z,77.20
2017-09-16T17:35:18.291Z,77.00
2017-09-16T17:37:55.615Z,77.00
2017-09-16T17:40:34.859Z,77.90
2017-09-16T17:43:16.637Z,77.10
2017-09-16T17:45:54.241Z,77.00
2017-09-16T17:48:30.106Z,77.00
2017-09-16T17:51:14.880Z,76.60
2017-09-16T17:53:50.501Z,76.60
2017-09-16T17:56:25.356Z,76.40
2017-09-16T17:58:58.491Z,76.60
2017-09-16T18:01:35.791Z,76.40
2017-09-16T18:04:08.818Z,76.40
2017-09-16T18:06:41.705Z,76.50
2017-09-16T18:09:17.738Z,76.30
2017-09-16T18:11:54.688Z,76.40
2017-09-16T18:14:29.227Z,76.50
2017-09-16T18:17:04.269Z,76.40
2017-09-16T18:19:38.600Z,76.60
2017-09-16T18:22:11.889Z,76.40
2017-09-16T18:24:45.832Z,76.50
2017-09-16T18:27:23.107Z,76.30
2017-09-16T18:29:56.580Z,76.30
2017-09-16T18:32:31.679Z,76.50
2017-09-16T18:35:04.966Z,76.30
2017-09-16T18:37:38.837Z,76.40
2017-09-16T18:40:11.761Z,76.40
2017-09-16T18:42:45.398Z,76.50
2017-09-16T18:45:17.226Z,76.50
2017-09-16T18:50:21.893Z,76.50
2017-09-16T18:52:53.958Z,76.70
2017-09-16T18:55:27.556Z,76.60
2017-09-16T18:57:59.505Z,76.80
2017-09-16T19:00:30.552Z,76.70
2017-09-16T19:03:02.205Z,76.80
2017-09-16T19:05:35.440Z,76.80
2017-09-16T19:08:07.115Z,76.50
2017-09-16T19:10:39.644Z,76.80
2017-09-16T19:13:11.459Z,76.70
2017-09-16T19:15:42.903Z,76.70
2017-09-16T19:18:14.289Z,76.70
2017-09-16T19:20:46.457Z,76.60
2017-09-16T19:23:18.560Z,76.60
2017-09-16T19:25:51.140Z,76.80
2017-09-16T19:28:21.988Z,76.80
2017-09-16T19:30:52.661Z,76.70
2017-09-16T19:33:23.246Z,76.60
2017-09-16T19:35:54.710Z,76.70
2017-09-16T19:38:25.855Z,76.70
2017-09-16T19:40:57.490Z,76.80
2017-09-16T19:43:27.891Z,76.80
2017-09-16T19:45:59.374Z,76.70
2017-09-16T19:48:29.765Z,76.90
2017-09-16T19:51:07.728Z,76.70
2017-09-16T19:53:38.296Z,76.70
2017-09-16T19:56:09.934Z,76.80
2017-09-16T19:58:40.746Z,76.70
2017-09-16T20:01:11.520Z,76.80
2017-09-16T20:03:43.004Z,77.00
2017-09-16T20:06:13.705Z,76.80
2017-09-16T20:08:44.363Z,76.70
2017-09-16T20:11:15.202Z,76.60
2017-09-16T20:13:46.356Z,76.80
2017-09-16T20:16:17.250Z,76.90
2017-09-16T20:18:47.902Z,76.90
2017-09-16T20:21:19.538Z,76.90
2017-09-16T20:23:50.110Z,76.90
2017-09-16T20:26:20.668Z,77.00
2017-09-16T20:28:51.254Z,76.90
2017-09-16T20:31:22.738Z,77.00
2017-09-16T20:33:54.390Z,77.00
2017-09-16T20:36:25.330Z,76.90
2017-09-16T20:38:56.193Z,76.90
2017-09-16T20:41:30.233Z,77.30
2017-09-16T20:44:01.219Z,77.80
2017-09-16T20:46:32.025Z,78.30
2017-09-16T20:49:02.723Z,79.30
2017-09-16T20:51:33.288Z,79.30
2017-09-16T20:54:03.949Z,79.20
2017-09-16T20:56:34.655Z,79.00
2017-09-16T20:59:05.901Z,78.50
2017-09-16T21:01:36.649Z,78.50
2017-09-16T21:04:07.266Z,78.30
2017-09-16T21:06:38.952Z,78.10
2017-09-16T21:09:09.448Z,78.00
2017-09-16T21:11:40.007Z,77.90
2017-09-16T21:14:10.513Z,77.90
2017-09-16T21:16:40.934Z,77.80
2017-09-16T21:19:13.028Z,77.70
2017-09-16T21:21:43.619Z,77.70
2017-09-16T21:24:14.942Z,77.70
2017-09-16T21:26:45.508Z,77.70
2017-09-16T21:29:16.971Z,77.70
2017-09-16T21:31:47.581Z,77.60
2017-09-16T21:34:18.306Z,77.70
2017-09-16T21:36:49.806Z,77.80
2017-09-16T21:39:20.278Z,77.70
2017-09-16T21:41:50.811Z,77.70
2017-09-16T21:44:22.319Z,77.70
2017-09-16T21:46:52.972Z,77.70
2017-09-16T21:49:23.566Z,77.90
2017-09-16T21:51:53.917Z,77.80
2017-09-16T21:54:24.440Z,77.90
2017-09-16T21:56:55.045Z,77.80
2017-09-16T21:59:25.500Z,77.90
2017-09-16T22:01:56.044Z,77.90
2017-09-16T22:04:26.598Z,78.00
2017-09-16T22:06:57.292Z,77.90
2017-09-16T22:09:28.067Z,78.00
2017-09-16T22:11:58.705Z,77.90
2017-09-16T22:14:29.931Z,78.00
2017-09-16T22:17:00.547Z,78.00
2017-09-16T22:19:31.715Z,78.10
2017-09-16T22:22:02.303Z,78.10
2017-09-16T22:24:33.049Z,78.10
2017-09-16T22:27:04.539Z,78.20
2017-09-16T22:29:35.798Z,78.30
2017-09-16T22:32:06.349Z,78.20
2017-09-16T22:34:36.828Z,78.20
2017-09-16T22:37:07.501Z,78.20
2017-09-16T22:39:37.986Z,78.10
2017-09-16T22:42:08.479Z,78.20
2017-09-16T22:44:38.822Z,78.30
2017-09-16T22:47:09.352Z,78.30
2017-09-16T22:49:39.810Z,78.20
2017-09-16T22:52:10.353Z,78.20
2017-09-16T22:54:40.932Z,78.00
2017-09-16T22:57:12.829Z,78.00
2017-09-16T22:59:43.330Z,78.10
2017-09-16T23:02:13.994Z,78.20
2017-09-16T23:04:44.679Z,78.30
2017-09-16T23:07:15.086Z,78.20
2017-09-16T23:09:45.760Z,78.20
2017-09-16T23:12:16.226Z,78.20
2017-09-16T23:14:46.606Z,78.20
2017-09-16T23:17:17.080Z,78.20
2017-09-16T23:19:47.457Z,78.20
2017-09-16T23:22:17.901Z,78.20
2017-09-16T23:24:48.281Z,78.20
2017-09-16T23:27:18.747Z,78.20
2017-09-16T23:29:49.047Z,78.20
2017-09-16T23:32:20.387Z,78.20
2017-09-16T23:34:51.391Z,78.20
2017-09-16T23:37:22.537Z,78.20
2017-09-16T23:39:53.678Z,78.10
2017-09-16T23:42:24.891Z,78.20
2017-09-16T23:44:55.504Z,78.20
2017-09-16T23:47:26.217Z,78.20
2017-09-16T23:49:56.868Z,78.20
2017-09-16T23:52:27.404Z,78.20
2017-09-16T23:54:59.390Z,78.20
2017-09-16T23:57:29.944Z,78.20
